createdAt,value
2018-12-15T00:01:16.734Z,22.67
2018-12-15T00:03:43.531Z,25.00
2018-12-15T00:06:10.426Z,18.87
2018-12-15T00:08:37.751Z,24.43
2018-12-15T00:11:04.491Z,23.07
2018-12-15T00:13:31.229Z,21.87
2018-12-15T00:15:57.944Z,23.38
2018-12-15T00:18:24.665Z,23.90
2018-12-15T00:20:51.399Z,25.15
2018-12-15T00:23:18.112Z,22.85
2018-12-15T00:25:44.842Z,21.80
2018-12-15T00:28:11.553Z,23.62
2018-12-15T00:30:38.288Z,24.10
2018-12-15T00:33:05.005Z,25.08
2018-12-15T00:35:31.751Z,21.90
2018-12-15T00:37:58.483Z,22.00
2018-12-15T00:40:25.202Z,23.32
2018-12-15T00:42:51.976Z,23.73
2018-12-15T00:45:18.709Z,21.85
2018-12-15T00:47:45.419Z,24.25
2018-12-15T00:50:12.190Z,25.82
2018-12-15T00:52:38.905Z,24.43
2018-12-15T00:55:05.678Z,23.52
2018-12-15T00:57:32.412Z,21.37
2018-12-15T00:59:59.128Z,22.35
2018-12-15T01:02:25.955Z,24.05
2018-12-15T01:04:52.664Z,24.98
2018-12-15T01:07:19.400Z,23.20
2018-12-15T01:09:46.116Z,22.22
2018-12-15T01:12:12.865Z,23.35
2018-12-15T01:14:39.587Z,23.35
2018-12-15T01:17:06.304Z,24.12
2018-12-15T01:19:33.043Z,24.65
2018-12-15T01:21:59.758Z,22.25
2018-12-15T01:24:26.496Z,23.52
2018-12-15T01:26:53.216Z,24.35
2018-12-15T01:29:20.002Z,23.10
2018-12-15T01:31:46.726Z,24.90
2018-12-15T01:34:13.448Z,25.08
2018-12-15T01:36:40.224Z,25.23
2018-12-15T01:39:07.010Z,24.80
2018-12-15T01:41:33.745Z,21.48
2018-12-15T01:44:01.074Z,24.15
2018-12-15T01:46:27.799Z,24.25
2018-12-15T01:48:54.553Z,26.17
2018-12-15T01:51:21.300Z,23.20
2018-12-15T01:53:48.021Z,23.20
2018-12-15T01:56:14.762Z,24.60
2018-12-15T01:58:47.935Z,25.40
2018-12-15T02:01:14.948Z,23.70
2018-12-15T02:03:41.948Z,24.87
2018-12-15T02:06:09.031Z,25.10
2018-12-15T02:08:36.169Z,25.65
2018-12-15T02:11:03.279Z,26.00
2018-12-15T02:13:30.046Z,25.27
2018-12-15T02:15:56.975Z,25.10
2018-12-15T02:18:23.879Z,25.00
2018-12-15T02:20:50.824Z,26.15
2018-12-15T02:23:17.691Z,24.90
2018-12-15T02:25:44.510Z,25.30
2018-12-15T02:28:11.416Z,25.23
2018-12-15T02:30:38.279Z,26.10
2018-12-15T02:33:05.459Z,24.55
2018-12-15T02:35:32.401Z,25.08
2018-12-15T02:37:59.363Z,23.85
2018-12-15T02:40:26.232Z,24.45
2018-12-15T02:42:53.173Z,24.52
2018-12-15T02:45:20.134Z,27.37
2018-12-15T02:47:47.067Z,23.92
2018-12-15T02:50:14.066Z,25.45
2018-12-15T02:52:40.918Z,22.60
2018-12-15T02:55:07.645Z,25.02
2018-12-15T02:57:34.395Z,24.27
2018-12-15T03:00:01.153Z,26.77
2018-12-15T03:02:27.877Z,25.00
2018-12-15T03:04:54.601Z,24.60
2018-12-15T03:07:21.400Z,24.65
2018-12-15T03:09:48.250Z,24.72
2018-12-15T03:12:15.011Z,22.50
2018-12-15T03:14:41.825Z,25.62
2018-12-15T03:17:08.568Z,25.60
2018-12-15T03:19:35.293Z,24.02
2018-12-15T03:22:02.119Z,25.52
2018-12-15T03:24:28.892Z,25.52
2018-12-15T03:26:55.677Z,26.02
2018-12-15T03:29:22.661Z,26.00
2018-12-15T03:31:49.500Z,23.20
2018-12-15T03:34:16.516Z,25.90
2018-12-15T03:36:43.464Z,25.80
2018-12-15T03:39:10.207Z,23.15
2018-12-15T03:41:36.942Z,25.77
2018-12-15T03:44:09.625Z,26.20
2018-12-15T03:46:36.728Z,22.52
2018-12-15T03:49:03.589Z,24.15
2018-12-15T03:51:30.337Z,26.57
2018-12-15T03:53:57.267Z,25.60
2018-12-15T03:56:24.012Z,25.40
2018-12-15T03:58:50.744Z,25.00
2018-12-15T04:01:17.494Z,24.25
2018-12-15T04:03:44.276Z,26.10
2018-12-15T04:06:11.006Z,25.35
2018-12-15T04:08:37.751Z,26.12
2018-12-15T04:11:04.508Z,22.90
2018-12-15T04:13:31.229Z,25.30
2018-12-15T04:15:57.962Z,26.12
2018-12-15T04:18:24.723Z,25.80
2018-12-15T04:20:51.445Z,24.98
2018-12-15T04:23:18.189Z,24.52
2018-12-15T04:25:44.922Z,23.70
2018-12-15T04:28:11.689Z,24.60
2018-12-15T04:30:38.408Z,25.40
2018-12-15T04:33:05.152Z,24.35
2018-12-15T04:35:31.892Z,25.37
2018-12-15T04:37:58.616Z,25.10
2018-12-15T04:40:25.489Z,24.82
2018-12-15T04:42:52.268Z,23.85
2018-12-15T04:45:18.999Z,25.68
2018-12-15T04:47:45.725Z,24.40
2018-12-15T04:50:12.489Z,24.77
2018-12-15T04:52:39.214Z,26.80
2018-12-15T04:55:06.015Z,24.23
2018-12-15T04:57:32.736Z,26.00
2018-12-15T04:59:59.470Z,27.00
2018-12-15T05:02:26.377Z,24.87
2018-12-15T05:04:53.152Z,25.90
2018-12-15T05:07:19.868Z,24.35
2018-12-15T05:09:46.627Z,26.75
2018-12-15T05:12:13.349Z,25.68
2018-12-15T05:14:40.076Z,24.43
2018-12-15T05:17:06.825Z,26.12
2018-12-15T05:19:33.566Z,27.02
2018-12-15T05:22:00.436Z,26.37
2018-12-15T05:24:27.170Z,26.95
2018-12-15T05:26:53.886Z,28.12
2018-12-15T05:29:20.734Z,26.20
2018-12-15T05:31:47.511Z,26.23
2018-12-15T05:34:14.236Z,23.18
2018-12-15T05:36:42.496Z,24.87
2018-12-15T05:39:09.360Z,25.62
2018-12-15T05:41:36.100Z,26.73
2018-12-15T05:44:02.883Z,25.35
2018-12-15T05:46:29.718Z,26.57
2018-12-15T05:48:56.448Z,28.62
2018-12-15T05:51:23.161Z,24.30
2018-12-15T05:53:49.914Z,27.95
2018-12-15T05:56:16.637Z,24.37
2018-12-15T05:58:43.358Z,27.52
2018-12-15T06:01:10.098Z,28.57
2018-12-15T06:03:36.863Z,28.50
2018-12-15T06:06:03.576Z,27.05
2018-12-15T06:08:30.294Z,28.85
2018-12-15T06:10:57.040Z,28.70
2018-12-15T06:13:23.764Z,27.77
2018-12-15T06:15:50.518Z,27.87
2018-12-15T06:18:17.239Z,30.10
2018-12-15T06:20:43.958Z,27.70
2018-12-15T06:23:10.696Z,27.32
2018-12-15T06:25:37.441Z,27.55
2018-12-15T06:28:04.201Z,27.87
2018-12-15T06:30:30.913Z,29.37
2018-12-15T06:32:57.641Z,28.67
2018-12-15T06:35:24.377Z,29.12
2018-12-15T06:37:51.121Z,28.92
2018-12-15T06:40:17.884Z,28.27
2018-12-15T06:42:44.597Z,28.17
2018-12-15T06:45:11.309Z,25.77
2018-12-15T06:47:38.073Z,29.18
2018-12-15T06:50:04.845Z,29.18
2018-12-15T06:52:31.567Z,27.40
2018-12-15T06:54:58.301Z,26.10
2018-12-15T06:57:25.015Z,26.65
2018-12-15T06:59:51.740Z,25.57
2018-12-15T07:02:18.549Z,24.10
2018-12-15T07:04:45.265Z,27.50
2018-12-15T07:07:11.985Z,25.68
2018-12-15T07:09:38.740Z,25.30
2018-12-15T07:12:05.462Z,26.65
2018-12-15T07:14:32.187Z,24.07
2018-12-15T07:16:59.100Z,24.02
2018-12-15T07:19:25.851Z,22.62
2018-12-15T07:21:52.631Z,20.90
2018-12-15T07:24:20.169Z,23.55
2018-12-15T07:26:47.926Z,19.45
2018-12-15T07:29:15.362Z,23.15
2018-12-15T07:31:43.011Z,22.40
2018-12-15T07:34:10.661Z,23.73
2018-12-15T07:36:37.393Z,21.80
2018-12-15T07:39:06.975Z,22.95
2018-12-15T07:41:33.747Z,24.67
2018-12-15T07:44:01.924Z,23.42
2018-12-15T07:46:29.014Z,24.23
2018-12-15T07:48:55.755Z,23.15
2018-12-15T07:51:22.771Z,21.33
2018-12-15T07:53:52.061Z,21.80
2018-12-15T07:56:21.673Z,24.15
2018-12-15T07:58:49.338Z,21.85
2018-12-15T08:01:16.762Z,24.35
2018-12-15T08:03:43.539Z,22.00
2018-12-15T08:06:11.408Z,24.87
2018-12-15T08:08:38.330Z,22.22
2018-12-15T08:14:14.988Z,23.75
2018-12-15T08:16:41.840Z,21.02
2018-12-15T08:19:08.583Z,22.55
2018-12-15T08:21:35.725Z,21.90
2018-12-15T08:24:03.896Z,22.35
2018-12-15T08:26:31.809Z,20.15
2018-12-15T08:28:59.064Z,20.80
2018-12-15T08:31:26.814Z,19.80
2018-12-15T08:33:54.287Z,18.30
2018-12-15T08:36:21.524Z,21.23
2018-12-15T08:38:48.572Z,19.62
2018-12-15T08:41:15.345Z,19.98
2018-12-15T08:43:44.556Z,21.00
2018-12-15T08:46:14.698Z,16.60
2018-12-15T08:48:41.681Z,18.23
2018-12-15T08:51:08.887Z,17.48
2018-12-15T08:53:36.434Z,15.68
2018-12-15T08:56:03.190Z,18.05
2018-12-15T08:58:29.953Z,17.50
2018-12-15T09:01:05.002Z,16.23
2018-12-15T09:03:31.762Z,18.77
2018-12-15T09:06:00.945Z,16.30
2018-12-15T09:08:31.509Z,18.65
2018-12-15T09:10:59.617Z,17.92
2018-12-15T09:13:27.483Z,18.37
2018-12-15T09:15:55.604Z,16.40
2018-12-15T09:18:23.020Z,17.27
2018-12-15T09:20:49.905Z,18.95
2018-12-15T09:23:17.821Z,16.67
2018-12-15T09:25:44.561Z,17.15
2018-12-15T09:28:11.318Z,18.62
2018-12-15T09:30:38.320Z,15.90
2018-12-15T09:33:05.149Z,15.58
2018-12-15T09:35:32.263Z,15.95
2018-12-15T09:37:59.009Z,15.58
2018-12-15T09:40:26.029Z,13.65
2018-12-15T09:42:53.663Z,15.10
2018-12-15T09:45:20.498Z,14.18
2018-12-15T09:47:50.842Z,16.02
2018-12-15T09:50:30.098Z,13.98
2018-12-15T09:53:10.707Z,13.88
2018-12-15T09:55:53.015Z,16.70
2018-12-15T09:58:32.717Z,16.10
2018-12-15T10:01:10.852Z,15.13
2018-12-15T10:03:45.141Z,14.40
2018-12-15T10:06:20.090Z,16.27
2018-12-15T10:08:52.868Z,16.32
2018-12-15T10:11:32.897Z,15.55
2018-12-15T10:14:07.010Z,16.90
2018-12-15T10:16:37.873Z,16.00
2018-12-15T10:19:17.169Z,13.55
2018-12-15T10:21:50.857Z,15.63
2018-12-15T10:24:25.929Z,14.63
2018-12-15T10:27:03.399Z,14.38
2018-12-15T10:29:45.119Z,14.05
2018-12-15T10:32:28.673Z,16.17
2018-12-15T10:35:08.775Z,15.83
2018-12-15T10:40:27.168Z,14.35
2018-12-15T10:43:07.102Z,13.70
2018-12-15T10:45:46.460Z,15.88
2018-12-15T10:48:19.663Z,15.70
2018-12-15T10:50:56.505Z,17.07
2018-12-15T10:53:30.957Z,17.62
2018-12-15T10:56:10.593Z,15.40
2018-12-15T10:58:45.458Z,13.88
2018-12-15T11:01:22.162Z,15.65
2018-12-15T11:04:00.842Z,16.00
2018-12-15T11:09:33.775Z,16.80
2018-12-15T11:12:11.245Z,15.65
2018-12-15T11:14:48.055Z,15.53
2018-12-15T11:17:21.757Z,15.90
2018-12-15T11:20:00.574Z,14.30
2018-12-15T11:22:41.451Z,17.15
2018-12-15T11:25:18.493Z,15.95
2018-12-15T11:27:53.084Z,14.25
2018-12-15T11:30:31.067Z,16.93
2018-12-15T11:33:08.990Z,15.43
2018-12-15T11:35:43.613Z,15.60
2018-12-15T11:38:17.047Z,15.45
2018-12-15T11:40:53.793Z,14.28
2018-12-15T11:43:30.439Z,13.08
2018-12-15T11:46:07.468Z,13.78
2018-12-15T11:48:44.338Z,13.85
2018-12-15T11:51:18.114Z,14.35
2018-12-15T11:53:51.812Z,13.40
2018-12-15T11:59:16.913Z,13.68
2018-12-15T12:01:43.865Z,14.80
2018-12-15T12:04:10.942Z,15.00
2018-12-15T12:06:38.277Z,13.30
2018-12-15T12:09:05.668Z,14.50
2018-12-15T12:11:32.948Z,15.10
2018-12-15T12:14:00.560Z,13.18
2018-12-15T12:16:27.672Z,14.75
2018-12-15T12:18:54.802Z,14.90
2018-12-15T12:21:25.479Z,12.82
2018-12-15T12:23:52.204Z,13.95
2018-12-15T12:26:19.034Z,13.55
2018-12-15T12:28:45.757Z,15.83
2018-12-15T12:31:12.480Z,15.60
2018-12-15T12:33:39.330Z,14.07
2018-12-15T12:36:06.042Z,14.90
2018-12-15T12:38:32.772Z,14.50
2018-12-15T12:40:59.560Z,14.47
2018-12-15T12:43:26.412Z,13.72
2018-12-15T12:45:53.183Z,10.58
2018-12-15T12:48:19.925Z,13.10
2018-12-15T12:50:46.752Z,13.43
2018-12-15T12:53:13.467Z,11.70
2018-12-15T12:55:40.321Z,15.13
2018-12-15T12:58:07.193Z,13.05
2018-12-15T13:00:33.940Z,17.35
2018-12-15T13:03:00.673Z,15.72
2018-12-15T13:05:27.445Z,15.45
2018-12-15T13:07:54.188Z,17.90
2018-12-15T13:10:20.919Z,16.57
2018-12-15T13:12:47.824Z,16.57
2018-12-15T13:15:14.559Z,15.55
2018-12-15T13:17:42.528Z,16.60
2018-12-15T13:20:09.321Z,16.27
2018-12-15T13:22:36.061Z,18.37
2018-12-15T13:25:02.872Z,15.50
2018-12-15T13:27:29.654Z,18.02
2018-12-15T13:29:56.388Z,17.65
2018-12-15T13:32:24.776Z,19.10
2018-12-15T13:34:51.706Z,14.58
2018-12-15T13:37:18.520Z,16.20
2018-12-15T13:39:46.499Z,17.82
2018-12-15T13:42:13.521Z,18.32
2018-12-15T13:44:41.527Z,16.95
2018-12-15T13:47:08.813Z,16.25
2018-12-15T13:49:35.899Z,17.87
2018-12-15T13:52:04.909Z,19.50
2018-12-15T13:54:32.066Z,17.85
2018-12-15T13:57:00.609Z,17.60
2018-12-15T13:59:27.914Z,17.40
2018-12-15T14:01:55.285Z,17.50
2018-12-15T14:04:22.713Z,17.45
2018-12-15T14:06:50.304Z,15.25
2018-12-15T14:09:18.031Z,14.90
2018-12-15T14:11:45.780Z,17.25
2018-12-15T14:14:12.709Z,14.70
2018-12-15T14:16:39.449Z,15.32
2018-12-15T14:19:06.995Z,12.47
2018-12-15T14:21:33.888Z,15.28
2018-12-15T14:24:00.984Z,16.30
2018-12-15T14:26:28.578Z,14.38
2018-12-15T14:28:56.215Z,14.63
2018-12-15T14:31:23.125Z,17.40
2018-12-15T14:33:50.424Z,17.30
2018-12-15T14:36:19.443Z,17.25
2018-12-15T14:38:46.700Z,15.88
2018-12-15T14:41:13.721Z,16.10
2018-12-15T14:43:41.502Z,15.50
2018-12-15T14:46:08.318Z,16.57
2018-12-15T14:48:36.357Z,16.77
2018-12-15T14:51:03.642Z,15.98
2018-12-15T14:53:31.222Z,17.65
2018-12-15T14:55:58.249Z,18.65
2018-12-15T14:58:25.142Z,17.27
2018-12-15T15:00:52.117Z,16.45
2018-12-15T15:03:18.855Z,16.00
2018-12-15T15:05:45.656Z,17.80
2018-12-15T15:08:12.783Z,19.07
2018-12-15T15:10:39.533Z,17.07
2018-12-15T15:13:06.308Z,15.10
2018-12-15T15:15:33.039Z,15.65
2018-12-15T15:17:59.841Z,17.30
2018-12-15T15:20:29.748Z,17.20
2018-12-15T15:22:59.162Z,17.17
2018-12-15T15:25:26.065Z,17.20
2018-12-15T15:27:52.827Z,15.20
2018-12-15T15:30:19.859Z,17.87
2018-12-15T15:32:46.825Z,16.52
2018-12-15T15:35:13.710Z,17.00
2018-12-15T15:37:40.618Z,17.40
2018-12-15T15:40:07.388Z,16.52
2018-12-15T15:42:34.140Z,17.70
2018-12-15T15:45:00.912Z,20.60
2018-12-15T15:47:27.999Z,16.45
2018-12-15T15:49:55.474Z,17.87
2018-12-15T15:52:34.562Z,17.05
2018-12-15T15:55:01.532Z,17.35
2018-12-15T15:57:28.341Z,14.23
2018-12-15T15:59:55.086Z,16.10
2018-12-15T16:02:21.846Z,16.73
2018-12-15T16:04:48.590Z,17.15
2018-12-15T16:07:15.325Z,16.35
2018-12-15T16:09:44.888Z,15.10
2018-12-15T16:12:10.853Z,14.95
2018-12-15T16:14:37.571Z,15.53
2018-12-15T16:17:04.337Z,16.23
2018-12-15T16:19:31.082Z,14.95
2018-12-15T16:21:57.847Z,15.10
2018-12-15T16:24:24.574Z,13.48
2018-12-15T16:26:51.313Z,15.58
2018-12-15T16:29:18.113Z,13.43
2018-12-15T16:31:45.201Z,14.15
2018-12-15T16:34:11.983Z,15.08
2018-12-15T16:36:38.844Z,14.18
2018-12-15T16:39:06.108Z,15.78
2018-12-15T16:41:32.849Z,12.00
2018-12-15T16:43:59.694Z,11.10
2018-12-15T16:46:26.417Z,15.38
2018-12-15T16:48:53.201Z,13.50
2018-12-15T16:51:31.605Z,14.98
2018-12-15T16:53:58.390Z,14.58
2018-12-15T16:56:25.158Z,14.95
2018-12-15T16:58:51.930Z,14.70
2018-12-15T17:01:18.664Z,15.63
2018-12-15T17:03:45.375Z,14.98
2018-12-15T17:06:12.142Z,12.80
2018-12-15T17:08:38.880Z,15.10
2018-12-15T17:11:07.434Z,18.12
2018-12-15T17:13:34.456Z,18.85
2018-12-15T17:16:01.200Z,17.87
2018-12-15T17:18:27.993Z,17.20
2018-12-15T17:20:56.860Z,20.92
2018-12-15T17:23:23.500Z,19.32
2018-12-15T17:25:50.286Z,20.52
2018-12-15T17:28:17.027Z,17.65
2018-12-15T17:30:43.800Z,21.77
2018-12-15T17:33:10.580Z,19.57
2018-12-15T17:35:37.367Z,23.15
2018-12-15T17:38:04.156Z,19.95
2018-12-15T17:40:30.901Z,16.82
2018-12-15T17:42:57.652Z,19.92
2018-12-15T17:45:24.418Z,21.07
2018-12-15T17:47:51.442Z,22.25
2018-12-15T17:50:18.251Z,21.95
2018-12-15T17:52:44.988Z,18.62
2018-12-15T17:55:11.744Z,21.15
2018-12-15T17:57:38.490Z,20.65
2018-12-15T18:00:06.760Z,22.40
2018-12-15T18:02:33.538Z,21.10
2018-12-15T18:05:00.335Z,24.20
2018-12-15T18:07:27.339Z,23.75
2018-12-15T18:09:54.158Z,21.90
2018-12-15T18:12:20.898Z,18.65
2018-12-15T18:14:47.722Z,22.87
2018-12-15T18:17:14.502Z,24.52
2018-12-15T18:19:41.301Z,23.38
2018-12-15T18:25:00.312Z,17.73
2018-12-15T18:27:27.083Z,24.32
2018-12-15T18:29:53.841Z,18.50
2018-12-15T18:32:20.591Z,21.95
2018-12-15T18:34:47.330Z,20.23
2018-12-15T18:37:14.087Z,20.82
2018-12-15T18:39:40.838Z,19.82
2018-12-15T18:42:10.845Z,15.85
2018-12-15T18:44:36.389Z,21.68
2018-12-15T18:47:03.122Z,20.55
2018-12-15T18:49:30.492Z,22.82
2018-12-15T18:51:57.584Z,19.07
2018-12-15T18:54:24.312Z,21.10
2018-12-15T18:56:51.212Z,17.82
2018-12-15T18:59:18.258Z,20.45
2018-12-15T19:01:44.986Z,20.75
2018-12-15T19:04:11.753Z,20.10
2018-12-15T19:06:38.487Z,16.12
2018-12-15T19:09:06.107Z,20.55
2018-12-15T19:11:32.847Z,16.57
2018-12-15T19:13:59.568Z,19.67
2018-12-15T19:16:26.331Z,18.20
2018-12-15T19:18:53.072Z,16.67
2018-12-15T19:21:22.938Z,15.85
2018-12-15T19:23:48.619Z,18.40
2018-12-15T19:26:15.383Z,19.07
2018-12-15T19:28:42.150Z,20.00
2018-12-15T19:31:08.914Z,18.15
2018-12-15T19:33:35.684Z,15.50
2018-12-15T19:36:02.562Z,16.55
2018-12-15T19:38:29.315Z,19.55
2018-12-15T19:40:56.067Z,14.75
2018-12-15T19:43:22.847Z,17.27
2018-12-15T19:45:49.607Z,20.50
2018-12-15T19:48:16.824Z,20.17
2018-12-15T19:50:46.206Z,16.95
2018-12-15T19:53:17.539Z,17.30
2018-12-15T19:55:51.286Z,17.35
2018-12-15T19:58:18.663Z,16.62
2018-12-15T20:00:45.442Z,19.10
2018-12-15T20:03:12.219Z,16.57
2018-12-15T20:05:39.030Z,14.93
2018-12-15T20:08:06.488Z,15.90
2018-12-15T20:10:33.312Z,17.32
2018-12-15T20:13:00.125Z,16.48
2018-12-15T20:15:26.880Z,15.38
2018-12-15T20:17:53.822Z,14.33
2018-12-15T20:20:20.600Z,15.40
2018-12-15T20:22:47.321Z,14.78
2018-12-15T20:25:14.090Z,13.43
2018-12-15T20:27:40.807Z,13.22
2018-12-15T20:30:07.604Z,14.18
2018-12-15T20:32:34.399Z,13.68
2018-12-15T20:35:01.133Z,14.63
2018-12-15T20:37:27.904Z,16.00
2018-12-15T20:39:54.659Z,15.93
2018-12-15T20:42:21.415Z,15.78
2018-12-15T20:44:48.235Z,13.55
2018-12-15T20:47:15.066Z,12.98
2018-12-15T20:49:41.784Z,16.60
2018-12-15T20:52:08.562Z,14.83
2018-12-15T20:54:35.286Z,14.65
2018-12-15T20:57:02.052Z,12.73
2018-12-15T20:59:28.799Z,15.83
2018-12-15T21:01:55.605Z,13.60
2018-12-15T21:04:22.442Z,15.58
2018-12-15T21:06:50.281Z,14.15
2018-12-15T21:09:17.013Z,11.70
2018-12-15T21:11:43.848Z,14.78
2018-12-15T21:14:10.665Z,13.88
2018-12-15T21:16:37.431Z,11.73
2018-12-15T21:19:04.272Z,15.63
2018-12-15T21:21:31.098Z,11.95
2018-12-15T21:23:58.204Z,13.85
2018-12-15T21:26:26.193Z,13.03
2018-12-15T21:28:52.967Z,14.05
2018-12-15T21:31:19.676Z,11.43
2018-12-15T21:33:46.475Z,12.75
2018-12-15T21:36:13.394Z,14.58
2018-12-15T21:38:40.200Z,14.85
2018-12-15T21:41:07.055Z,15.80
2018-12-15T21:43:33.797Z,14.07
2018-12-15T21:46:00.531Z,12.35
2018-12-15T21:48:27.385Z,13.32
2018-12-15T21:50:54.104Z,14.65
2018-12-15T21:53:20.907Z,17.23
2018-12-15T21:55:47.659Z,12.73
2018-12-15T21:58:14.478Z,14.55
2018-12-15T22:00:41.311Z,14.23
2018-12-15T22:03:08.096Z,15.70
2018-12-15T22:05:34.909Z,16.40
2018-12-15T22:08:01.913Z,14.58
2018-12-15T22:10:29.508Z,13.88
2018-12-15T22:12:56.242Z,11.95
2018-12-15T22:15:23.023Z,13.28
2018-12-15T22:17:49.755Z,12.63
2018-12-15T22:20:16.878Z,12.28
2018-12-15T22:22:43.785Z,13.70
2018-12-15T22:25:10.566Z,12.80
2018-12-15T22:27:37.303Z,15.80
2018-12-15T22:30:05.084Z,15.32
2018-12-15T22:32:31.852Z,13.50
2018-12-15T22:34:59.467Z,14.43
2018-12-15T22:37:27.852Z,14.95
2018-12-15T22:39:54.625Z,11.50
2018-12-15T22:42:22.427Z,12.23
2018-12-15T22:44:49.344Z,14.87
2018-12-15T22:47:16.572Z,13.70
2018-12-15T22:49:43.794Z,16.10
2018-12-15T22:52:10.567Z,14.13
2018-12-15T22:54:37.285Z,15.55
2018-12-15T22:57:04.041Z,15.35
2018-12-15T22:59:30.784Z,15.93
2018-12-15T23:01:58.470Z,14.95
2018-12-15T23:04:25.391Z,17.02
2018-12-15T23:06:52.157Z,14.40
2018-12-15T23:09:18.979Z,17.05
2018-12-15T23:11:45.851Z,15.18
2018-12-15T23:14:13.086Z,15.63
2018-12-15T23:16:39.852Z,14.85
2018-12-15T23:19:06.613Z,14.73
2018-12-15T23:21:33.395Z,16.80
2018-12-15T23:24:00.223Z,16.40
2018-12-15T23:26:26.970Z,17.37
2018-12-15T23:28:53.712Z,15.85
2018-12-15T23:31:20.611Z,15.78
2018-12-15T23:33:47.348Z,14.93
2018-12-15T23:36:15.004Z,17.07
2018-12-15T23:38:42.228Z,17.05
2018-12-15T23:41:09.376Z,14.98
2018-12-15T23:43:36.246Z,16.25
2018-12-15T23:46:04.530Z,17.17
2018-12-15T23:48:33.659Z,16.27
2018-12-15T23:51:04.419Z,17.17
2018-12-15T23:53:33.197Z,18.75
2018-12-15T23:56:00.179Z,19.10
2018-12-15T23:58:26.936Z,17.12
